createdAt,value
2019-04-20T00:01:50.522Z,85189.73
2019-04-20T00:04:25.710Z,85165.44
2019-04-20T00:06:54.816Z,85185.85
2019-04-20T00:09:29.879Z,85188.77
2019-04-20T00:12:07.119Z,85165.44
2019-04-20T00:14:33.873Z,85153.78
2019-04-20T00:17:03.098Z,85163.50
2019-04-20T00:19:40.742Z,85194.59
2019-04-20T00:22:15.230Z,85202.38
2019-04-20T00:25:17.250Z,85178.08
2019-04-20T00:28:19.725Z,85185.85
2019-04-20T00:30:54.438Z,85201.41
2019-04-20T00:33:24.295Z,85204.31
2019-04-20T00:35:42.114Z,85222.78
2019-04-20T00:38:13.978Z,85195.57
2019-04-20T00:40:45.513Z,85183.91
2019-04-20T00:43:21.208Z,85160.58
2019-04-20T00:45:53.748Z,85144.06
2019-04-20T00:48:32.701Z,85190.70
2019-04-20T00:51:06.868Z,85157.67
2019-04-20T00:53:34.709Z,85191.68
2019-04-20T00:55:59.092Z,85179.05
2019-04-20T00:58:47.412Z,85139.20
2019-04-20T01:01:20.235Z,85148.92
2019-04-20T01:03:52.160Z,85125.59
2019-04-20T01:06:46.295Z,85189.73
2019-04-20T01:09:20.387Z,85129.48
2019-04-20T01:11:51.666Z,85147.95
2019-04-20T01:14:36.290Z,85136.28
2019-04-20T01:17:00.728Z,85068.25
2019-04-20T01:19:28.181Z,85147.95
2019-04-20T01:22:04.784Z,85161.55
2019-04-20T01:24:35.430Z,85190.70
2019-04-20T01:27:05.639Z,85191.68
2019-04-20T01:29:42.299Z,85144.06
2019-04-20T01:32:22.559Z,85141.14
2019-04-20T01:34:52.464Z,85079.92
2019-04-20T01:37:28.091Z,85034.23
2019-04-20T01:39:51.002Z,84829.19
2019-04-20T01:42:17.348Z,84656.21
2019-04-20T01:44:51.691Z,84803.92
2019-04-20T01:47:23.907Z,84614.43
2019-04-20T01:49:57.509Z,84485.19
2019-04-20T01:52:34.958Z,84293.77
2019-04-20T01:55:27.586Z,83636.04
2019-04-20T01:58:06.029Z,84175.23
2019-04-20T02:00:41.611Z,84021.73
2019-04-20T02:03:34.026Z,83606.90
2019-04-20T02:06:06.160Z,83311.59
2019-04-20T02:08:34.266Z,82163.64
2019-04-20T02:11:07.364Z,82027.70
2019-04-20T02:13:44.438Z,81111.20
2019-04-20T02:16:15.768Z,80022.20
2019-04-20T02:18:58.743Z,77652.26
2019-04-20T02:21:28.643Z,77158.69
2019-04-20T02:23:54.199Z,71863.79
2019-04-20T02:26:19.868Z,68994.50
2019-04-20T02:29:17.472Z,67624.09
2019-04-20T02:32:08.535Z,69031.26
2019-04-20T02:34:39.624Z,65550.67
2019-04-20T02:37:13.578Z,59393.89
2019-04-20T02:42:20.339Z,48672.06
2019-04-20T02:44:48.135Z,41798.27
2019-04-20T02:47:21.426Z,32044.86
2019-04-20T02:52:34.013Z,39668.67
2019-04-20T02:57:33.429Z,37395.71
2019-04-20T03:02:19.516Z,26309.25
2019-04-20T03:04:42.283Z,23357.22
2019-04-20T03:07:19.665Z,-894.24
2019-04-20T03:09:57.994Z,-5983.09
2019-04-20T03:12:33.405Z,-12635.09
2019-04-20T03:14:55.291Z,-12755.91
2019-04-20T03:17:32.683Z,-13843.08
2019-04-20T03:19:58.286Z,-15533.52
2019-04-20T03:23:08.933Z,-15654.94
2019-04-20T03:25:18.033Z,-15654.94
2019-04-20T03:27:51.885Z,-15654.94
2019-04-20T03:31:22.482Z,-15654.94
2019-04-20T03:33:41.294Z,-15654.23
2019-04-20T03:36:07.605Z,-15533.52
2019-04-20T03:38:29.572Z,-15654.23
2019-04-20T03:40:53.087Z,-15654.94
2019-04-20T03:43:11.925Z,-15654.94
2019-04-20T03:45:52.672Z,-15533.52
2019-04-20T03:48:34.686Z,-15654.23
2019-04-20T03:51:08.697Z,-15654.94
2019-04-20T03:53:44.837Z,-15654.94
2019-04-20T03:56:42.328Z,-15654.94
2019-04-20T03:59:19.519Z,-15654.94
2019-04-20T04:02:35.156Z,-15654.94
2019-04-20T04:05:08.519Z,-15654.94
2019-04-20T04:07:30.396Z,-15654.94
2019-04-20T04:10:12.094Z,-15654.94
2019-04-20T04:13:14.550Z,-15654.94
2019-04-20T04:15:51.994Z,-15654.94
2019-04-20T04:18:28.137Z,-15654.94
2019-04-20T04:21:00.069Z,-15654.94
2019-04-20T04:23:40.917Z,-15654.94
2019-04-20T04:26:15.029Z,-15654.94
2019-04-20T04:28:46.277Z,-15654.94
2019-04-20T04:31:20.396Z,-15654.94
2019-04-20T04:36:21.211Z,-15654.94
2019-04-20T04:39:05.475Z,-15654.94
2019-04-20T04:41:35.456Z,-15654.94
2019-04-20T04:43:58.914Z,-15654.94
2019-04-20T04:46:16.559Z,-15654.94
2019-04-20T04:48:51.690Z,-15654.94
2019-04-20T04:51:26.336Z,-15654.94
2019-04-20T04:54:01.823Z,-15654.94
2019-04-20T04:56:26.945Z,-15654.94
2019-04-20T04:58:58.219Z,-15654.94
2019-04-20T05:01:32.731Z,-15654.94
2019-04-20T05:04:23.060Z,-15654.94
2019-04-20T05:06:50.573Z,-15654.94
2019-04-20T05:09:10.365Z,-15654.94
2019-04-20T05:11:39.005Z,-15654.94
2019-04-20T05:14:15.038Z,-15654.94
2019-04-20T05:16:58.110Z,-15654.94
2019-04-20T05:19:37.000Z,-15654.94
2019-04-20T05:22:13.558Z,-15654.94
2019-04-20T05:24:56.686Z,-15654.94
2019-04-20T05:27:46.482Z,-15654.94
2019-04-20T05:29:59.466Z,-15654.94
2019-04-20T05:32:39.658Z,-15654.94
2019-04-20T05:35:35.461Z,-15654.94
2019-04-20T05:38:05.148Z,-15654.94
2019-04-20T05:40:30.727Z,-15654.94
2019-04-20T05:43:07.846Z,-15654.94
2019-04-20T05:45:29.876Z,-15654.94
2019-04-20T05:48:07.453Z,-15654.94
2019-04-20T05:50:45.045Z,-15654.94
2019-04-20T05:53:13.003Z,-15654.94
2019-04-20T05:55:49.272Z,-15654.94
2019-04-20T05:58:22.076Z,-15654.94
2019-04-20T06:00:57.050Z,-15654.94
2019-04-20T06:03:20.411Z,-15654.94
2019-04-20T06:06:03.482Z,-15654.94
2019-04-20T06:08:43.874Z,-15654.94
2019-04-20T06:11:04.564Z,-15654.94
2019-04-20T06:13:36.856Z,-15654.94
2019-04-20T06:16:23.014Z,-15654.94
2019-04-20T06:19:08.860Z,-15654.94
2019-04-20T06:21:39.545Z,-15654.94
2019-04-20T06:24:18.362Z,-15654.94
2019-04-20T06:29:20.027Z,-15654.94
2019-04-20T06:31:57.468Z,-15654.94
2019-04-20T06:34:42.559Z,-15654.23
2019-04-20T06:37:02.145Z,-15533.52
2019-04-20T06:39:37.060Z,-15050.63
2019-04-20T06:44:39.979Z,-13843.08
2019-04-20T06:47:15.807Z,-13843.08
2019-04-20T06:50:03.418Z,-13359.94
2019-04-20T06:52:38.548Z,-12755.91
2019-04-20T06:55:05.237Z,-12514.26
2019-04-20T06:58:12.688Z,-12393.43
2019-04-20T07:00:15.816Z,-12514.26
2019-04-20T07:05:22.306Z,-13239.14
2019-04-20T07:08:28.864Z,-13480.73
2019-04-20T07:10:34.158Z,-13359.94
2019-04-20T07:12:55.329Z,-13239.14
2019-04-20T07:15:33.631Z,-13480.73
2019-04-20T07:18:13.827Z,-13480.73
2019-04-20T07:21:09.486Z,-13239.14
2019-04-20T07:23:31.422Z,-13239.14
2019-04-20T07:26:15.348Z,-12514.26
2019-04-20T07:31:06.750Z,-10096.83
2019-04-20T07:33:46.467Z,-9613.13
2019-04-20T07:36:20.164Z,-8887.45
2019-04-20T07:38:54.071Z,-7919.61
2019-04-20T07:41:29.650Z,-7193.55
2019-04-20T07:44:03.397Z,-6225.22
2019-04-20T07:46:42.904Z,-6225.22
2019-04-20T07:49:01.853Z,-5498.78
2019-04-20T07:51:18.257Z,-4045.41
2019-04-20T07:54:10.534Z,-4287.69
2019-04-20T07:56:40.783Z,-1379.23
2019-04-20T07:58:53.503Z,1167.78
2019-04-20T08:02:13.151Z,3473.92
2019-04-20T08:04:36.802Z,5781.69
2019-04-20T08:06:58.468Z,20760.62
2019-04-20T08:09:34.909Z,22958.35
2019-04-20T08:12:28.239Z,35972.90
2019-04-20T08:14:57.045Z,50841.04
2019-04-20T08:17:30.973Z,61058.22
2019-04-20T08:19:59.562Z,62646.12
2019-04-20T08:22:39.198Z,61442.34
2019-04-20T08:25:00.607Z,61300.46
2019-04-20T08:27:19.707Z,68154.01
2019-04-20T08:30:31.253Z,69706.52
2019-04-20T08:33:06.613Z,67323.39
2019-04-20T08:35:39.260Z,72956.01
2019-04-20T08:38:47.260Z,75334.34
2019-04-20T08:40:43.550Z,74360.53
2019-04-20T08:43:29.910Z,77873.38
2019-04-20T08:45:50.941Z,81841.27
2019-04-20T08:48:25.712Z,80709.34
2019-04-20T08:50:57.229Z,83371.81
2019-04-20T08:53:33.078Z,83258.17
2019-04-20T08:55:53.887Z,83567.06
2019-04-20T08:58:11.477Z,84005.21
2019-04-20T09:00:50.167Z,84030.47
2019-04-20T09:03:24.539Z,84053.79
2019-04-20T09:05:59.093Z,83991.61
2019-04-20T09:08:24.897Z,84137.34
2019-04-20T09:11:09.994Z,83998.41
2019-04-20T09:13:34.260Z,84082.94
2019-04-20T09:15:57.891Z,84013.95
2019-04-20T09:18:42.073Z,84091.68
2019-04-20T09:21:15.182Z,84035.33
2019-04-20T09:23:54.596Z,84105.28
2019-04-20T09:26:32.309Z,84094.59
2019-04-20T09:28:59.188Z,84017.84
2019-04-20T09:31:52.020Z,84065.45
2019-04-20T09:34:42.790Z,83991.61
2019-04-20T09:37:41.329Z,83969.27
2019-04-20T09:40:16.309Z,83940.12
2019-04-20T09:42:58.519Z,83901.26
2019-04-20T09:45:48.541Z,83942.06
2019-04-20T09:48:25.236Z,83826.45
2019-04-20T09:51:09.191Z,83882.80
2019-04-20T09:53:33.649Z,83810.91
2019-04-20T09:56:13.001Z,83854.62
2019-04-20T09:58:46.467Z,83766.22
2019-04-20T10:01:13.208Z,83679.76
2019-04-20T10:03:31.162Z,83788.56
2019-04-20T10:06:01.732Z,83803.13
2019-04-20T10:08:34.071Z,83843.94
2019-04-20T10:11:05.685Z,83764.27
2019-04-20T10:13:36.664Z,83723.47
2019-04-20T10:16:08.013Z,83721.53
2019-04-20T10:18:44.195Z,83562.21
2019-04-20T10:21:12.019Z,83594.27
2019-04-20T10:23:42.917Z,83634.09
2019-04-20T10:26:14.385Z,83617.58
2019-04-20T10:28:45.637Z,83545.70
2019-04-20T10:31:16.787Z,83606.90
2019-04-20T10:33:47.451Z,83619.52
2019-04-20T10:36:27.781Z,83523.35
2019-04-20T10:38:58.350Z,83481.58
2019-04-20T10:41:38.152Z,83524.33
2019-04-20T10:44:02.793Z,83328.10
2019-04-20T10:46:35.031Z,83215.42
2019-04-20T10:49:07.425Z,83409.70
2019-04-20T10:51:38.264Z,83352.39
2019-04-20T10:54:08.814Z,83286.34
2019-04-20T10:56:39.545Z,83265.94
2019-04-20T10:59:11.750Z,83264.97
2019-04-20T11:01:43.421Z,83197.95
2019-04-20T11:04:16.620Z,83074.59
2019-04-20T11:06:47.377Z,82879.36
2019-04-20T11:09:18.518Z,82668.61
2019-04-20T11:11:50.295Z,82915.30
2019-04-20T11:14:28.194Z,82655.02
2019-04-20T11:16:54.116Z,82483.13
2019-04-20T11:19:25.280Z,82452.05
2019-04-20T11:21:56.607Z,82589.95
2019-04-20T11:24:28.102Z,82453.02
2019-04-20T11:27:00.418Z,82571.50
2019-04-20T11:29:31.972Z,82578.30
2019-04-20T11:32:03.124Z,82347.17
2019-04-20T11:34:38.382Z,82488.95
2019-04-20T11:37:07.227Z,82470.50
2019-04-20T11:39:39.078Z,82334.55
2019-04-20T11:42:10.067Z,82201.51
2019-04-20T11:44:40.752Z,82237.44
2019-04-20T11:47:12.495Z,82136.45
2019-04-20T11:49:43.728Z,82196.66
2019-04-20T11:52:17.016Z,82319.98
2019-04-20T11:54:46.684Z,82452.05
2019-04-20T11:57:17.489Z,82366.59
2019-04-20T11:59:48.412Z,82357.84
2019-04-20T12:02:36.479Z,82222.87
2019-04-20T12:05:19.780Z,82175.29
2019-04-20T12:07:55.517Z,82053.91
2019-04-20T12:10:28.292Z,81940.30
2019-04-20T12:12:59.622Z,81849.03
2019-04-20T12:15:34.764Z,81800.48
2019-04-20T12:18:02.819Z,81846.13
2019-04-20T12:20:34.549Z,81616.02
2019-04-20T12:23:06.436Z,81614.08
2019-04-20T12:25:39.374Z,81622.81
2019-04-20T12:28:09.619Z,81555.82
2019-04-20T12:30:41.930Z,81705.34
2019-04-20T12:33:13.616Z,81575.24
2019-04-20T12:35:44.546Z,81631.55
2019-04-20T12:38:15.249Z,81525.73
2019-04-20T12:40:46.190Z,81604.37
2019-04-20T12:43:17.340Z,81652.91
2019-04-20T12:45:49.637Z,81243.22
2019-04-20T12:48:21.783Z,81381.08
2019-04-20T12:50:53.278Z,81714.08
2019-04-20T12:53:24.562Z,81312.14
2019-04-20T12:55:55.269Z,81102.45
2019-04-20T12:58:26.308Z,81269.43
2019-04-20T13:00:58.257Z,81238.37
2019-04-20T13:03:29.752Z,81160.70
2019-04-20T13:06:01.719Z,81181.09
2019-04-20T13:08:36.654Z,81206.33
2019-04-20T13:11:22.557Z,81437.38
2019-04-20T13:14:22.153Z,81379.13
2019-04-20T13:16:53.976Z,81346.12
2019-04-20T13:19:25.042Z,81151.00
2019-04-20T13:21:56.798Z,80909.29
2019-04-20T13:24:27.516Z,81179.15
2019-04-20T13:26:58.703Z,81267.48
2019-04-20T13:29:30.913Z,81058.78
2019-04-20T13:32:02.143Z,81263.61
2019-04-20T13:34:33.765Z,81153.91
2019-04-20T13:37:04.711Z,81396.61
2019-04-20T13:39:35.298Z,81428.64
2019-04-20T13:42:12.164Z,81554.85
2019-04-20T13:44:39.039Z,81481.06
2019-04-20T13:47:09.750Z,81266.52
2019-04-20T13:49:40.965Z,80908.31
2019-04-20T13:52:12.815Z,81097.61
2019-04-20T13:54:44.080Z,80828.72
2019-04-20T13:57:17.942Z,80959.77
2019-04-20T13:59:52.477Z,80831.63
2019-04-20T14:02:33.137Z,80823.87
2019-04-20T14:05:04.950Z,80660.80
2019-04-20T14:07:37.455Z,80722.92
2019-04-20T14:10:09.172Z,80748.16
2019-04-20T14:12:53.285Z,80662.75
2019-04-20T14:15:13.242Z,81064.60
2019-04-20T14:17:43.886Z,80708.36
2019-04-20T14:20:17.536Z,80681.19
2019-04-20T14:22:47.336Z,80853.96
2019-04-20T14:25:18.657Z,80933.55
2019-04-20T14:27:49.223Z,81136.44
2019-04-20T14:30:21.122Z,80948.12
2019-04-20T14:32:52.949Z,80726.80
2019-04-20T14:35:24.894Z,80592.86
2019-04-20T14:37:55.851Z,80612.27
2019-04-20T14:40:28.238Z,80759.81
2019-04-20T14:43:00.107Z,80720.02
2019-04-20T14:45:32.351Z,80735.55
2019-04-20T14:48:03.746Z,80852.98
2019-04-20T14:50:35.894Z,81021.89
2019-04-20T14:53:07.408Z,80778.25
2019-04-20T14:55:39.568Z,80622.95
2019-04-20T14:58:29.392Z,81206.33
2019-04-20T15:01:04.851Z,80981.12
2019-04-20T15:03:38.685Z,80654.01
2019-04-20T15:06:09.844Z,80601.59
2019-04-20T15:08:40.745Z,80713.22
2019-04-20T15:11:12.605Z,80843.28
2019-04-20T15:13:44.623Z,80810.28
2019-04-20T15:16:15.387Z,80446.30
2019-04-20T15:18:51.876Z,80765.63
2019-04-20T15:21:23.793Z,81005.39
2019-04-20T15:23:55.420Z,80896.67
2019-04-20T15:26:26.600Z,80653.04
2019-04-20T15:28:57.244Z,80541.42
2019-04-20T15:31:28.270Z,80464.75
2019-04-20T15:33:59.146Z,80605.48
2019-04-20T15:36:29.817Z,80191.06
2019-04-20T15:39:01.100Z,80721.95
2019-04-20T15:41:31.703Z,80728.75
2019-04-20T15:44:03.546Z,80642.36
2019-04-20T15:46:35.310Z,80482.22
2019-04-20T15:49:08.102Z,80396.81
2019-04-20T15:51:39.762Z,80445.34
2019-04-20T15:54:11.521Z,80524.92
2019-04-20T15:56:49.769Z,80635.56
2019-04-20T15:59:14.665Z,80566.66
2019-04-20T16:01:53.306Z,80763.69
2019-04-20T16:04:52.609Z,80380.31
2019-04-20T16:07:23.769Z,80621.98
2019-04-20T16:09:54.996Z,81040.33
2019-04-20T16:12:26.848Z,80696.72
2019-04-20T16:14:57.715Z,80594.80
2019-04-20T16:17:32.749Z,80341.48
2019-04-20T16:20:08.210Z,80335.66
2019-04-20T16:22:36.615Z,80729.72
2019-04-20T16:25:17.221Z,80960.73
2019-04-20T16:27:47.856Z,81140.32
2019-04-20T16:30:19.770Z,80690.89
2019-04-20T16:32:50.453Z,80560.83
2019-04-20T16:35:22.462Z,80718.07
2019-04-20T16:37:53.147Z,80851.05
2019-04-20T16:40:23.705Z,80878.23
2019-04-20T16:42:54.538Z,80929.67
2019-04-20T16:45:25.379Z,80842.31
2019-04-20T16:47:58.475Z,81127.70
2019-04-20T16:50:28.927Z,80953.94
2019-04-20T16:53:01.042Z,81156.82
2019-04-20T16:55:32.659Z,81251.95
2019-04-20T16:58:03.848Z,81576.21
2019-04-20T17:00:35.689Z,82456.91
2019-04-20T17:03:07.056Z,82811.38
2019-04-20T17:05:38.989Z,82969.69
2019-04-20T17:08:11.047Z,83129.95
2019-04-20T17:10:41.689Z,82983.29
2019-04-20T17:13:13.537Z,83158.12
2019-04-20T17:15:45.630Z,83497.13
2019-04-20T17:18:16.380Z,83681.70
2019-04-20T17:20:48.313Z,83729.30
2019-04-20T17:23:19.537Z,83722.50
2019-04-20T17:25:50.370Z,83779.81
2019-04-20T17:28:33.102Z,83748.73
2019-04-20T17:31:23.127Z,83773.98
2019-04-20T17:34:11.089Z,83840.05
2019-04-20T17:36:35.370Z,83861.42
2019-04-20T17:39:10.238Z,83897.38
2019-04-20T17:41:56.035Z,83977.03
2019-04-20T17:44:30.304Z,83977.03
2019-04-20T17:46:56.910Z,83999.38
2019-04-20T17:49:31.432Z,84060.59
2019-04-20T17:52:12.277Z,84008.13
2019-04-20T17:54:49.509Z,84045.05
2019-04-20T17:57:21.355Z,84106.25
2019-04-20T18:00:03.107Z,84144.14
2019-04-20T18:02:58.996Z,84195.64
2019-04-20T18:05:58.160Z,84252.97
2019-04-20T18:08:27.146Z,84267.54
2019-04-20T18:10:54.155Z,84263.66
2019-04-20T18:13:20.194Z,84262.69
2019-04-20T18:16:05.230Z,84299.60
2019-04-20T18:18:50.383Z,84316.13
2019-04-20T18:21:19.051Z,84357.91
2019-04-20T18:23:51.840Z,84398.71
2019-04-20T18:26:43.689Z,84405.52
2019-04-20T18:29:15.031Z,84460.91
2019-04-20T18:31:47.295Z,84463.81
2019-04-20T18:34:38.224Z,84446.33
2019-04-20T18:37:14.758Z,84474.50
2019-04-20T18:39:50.557Z,84503.66
2019-04-20T18:42:24.334Z,84514.34
2019-04-20T18:45:09.244Z,84547.38
2019-04-20T18:47:40.584Z,84527.95
2019-04-20T18:50:04.424Z,84536.69
2019-04-20T18:52:25.129Z,84535.72
2019-04-20T18:54:57.439Z,84544.47
2019-04-20T18:57:29.708Z,84541.55
2019-04-20T19:00:02.358Z,84543.49
2019-04-20T19:02:38.062Z,84508.52
2019-04-20T19:05:07.294Z,84504.63
2019-04-20T19:07:45.419Z,84475.48
2019-04-20T19:10:21.083Z,84520.17
2019-04-20T19:12:56.727Z,84521.14
2019-04-20T19:15:55.218Z,84552.23
2019-04-20T19:18:25.898Z,84549.33
2019-04-20T19:21:06.903Z,84594.99
2019-04-20T19:23:48.580Z,84592.08
2019-04-20T19:26:15.977Z,84622.20
2019-04-20T19:28:49.477Z,84655.24
2019-04-20T19:31:35.466Z,84673.70
2019-04-20T19:34:06.189Z,84704.80
2019-04-20T19:36:33.090Z,84680.50
2019-04-20T19:39:09.245Z,84689.25
2019-04-20T19:41:39.169Z,84659.13
2019-04-20T19:44:12.583Z,84663.02
2019-04-20T19:46:47.789Z,84678.56
2019-04-20T19:49:19.694Z,84666.91
2019-04-20T19:52:04.193Z,84696.05
2019-04-20T19:54:30.189Z,84673.70
2019-04-20T19:56:54.378Z,84687.31
2019-04-20T19:59:23.441Z,84687.31
2019-04-20T20:01:47.558Z,84656.21
2019-04-20T20:04:19.592Z,84663.98
2019-04-20T20:06:56.190Z,84663.02
2019-04-20T20:09:23.834Z,84693.14
2019-04-20T20:11:56.744Z,84689.25
2019-04-20T20:14:35.402Z,84683.42
2019-04-20T20:17:19.781Z,84715.49
2019-04-20T20:20:03.819Z,84728.13
2019-04-20T20:22:18.417Z,84710.63
2019-04-20T20:24:38.909Z,84738.81
2019-04-20T20:27:21.754Z,84735.90
2019-04-20T20:29:55.871Z,84720.35
2019-04-20T20:32:26.912Z,84699.94
2019-04-20T20:35:00.091Z,84751.45
2019-04-20T20:37:25.407Z,84772.83
2019-04-20T20:40:07.107Z,84760.19
2019-04-20T20:42:35.481Z,84764.08
2019-04-20T20:45:14.598Z,84797.12
2019-04-20T20:47:47.350Z,84801.01
2019-04-20T20:50:39.455Z,84819.47
2019-04-20T20:52:50.842Z,84819.47
2019-04-20T20:55:20.962Z,84824.33
2019-04-20T20:57:53.529Z,84827.24
2019-04-20T21:00:23.968Z,84844.73
2019-04-20T21:02:53.829Z,84852.52
2019-04-20T21:05:19.598Z,84836.96
2019-04-20T21:07:51.348Z,84899.16
2019-04-20T21:10:30.025Z,84838.91
2019-04-20T21:12:57.897Z,84859.31
2019-04-20T21:15:28.591Z,84858.34
2019-04-20T21:18:24.846Z,84833.08
2019-04-20T21:20:51.968Z,84827.24
2019-04-20T21:23:18.668Z,84836.96
2019-04-20T21:25:49.147Z,84822.38
2019-04-20T21:28:18.500Z,84803.92
2019-04-20T21:30:50.615Z,84824.33
2019-04-20T21:33:25.530Z,84835.02
2019-04-20T21:35:55.121Z,84843.77
2019-04-20T21:38:30.494Z,84840.84
2019-04-20T21:41:03.405Z,84846.67
2019-04-20T21:43:36.663Z,84839.88
2019-04-20T21:46:06.591Z,84831.13
2019-04-20T21:48:51.424Z,84876.80
2019-04-20T21:51:18.904Z,84886.52
2019-04-20T21:53:40.712Z,84892.35
2019-04-20T21:56:12.568Z,84885.55
2019-04-20T21:58:49.591Z,84906.93
2019-04-20T22:01:26.310Z,84878.75
2019-04-20T22:03:50.237Z,84862.23
2019-04-20T22:06:22.444Z,84865.14
2019-04-20T22:08:59.819Z,84881.66
2019-04-20T22:11:27.075Z,84895.27
2019-04-20T22:14:03.119Z,84894.30
2019-04-20T22:16:37.627Z,84890.41
2019-04-20T22:19:18.818Z,84876.80
2019-04-20T22:21:50.342Z,84918.59
2019-04-20T22:24:25.336Z,84896.23
2019-04-20T22:26:52.622Z,84893.33
2019-04-20T22:29:12.547Z,84915.67
2019-04-20T22:31:46.131Z,84904.02
2019-04-20T22:34:20.919Z,84916.65
2019-04-20T22:36:50.085Z,84923.45
2019-04-20T22:39:31.986Z,84938.03
2019-04-20T22:42:06.725Z,84930.25
2019-04-20T22:44:35.860Z,84927.34
2019-04-20T22:47:12.384Z,84940.95
2019-04-20T22:49:51.518Z,84936.08
2019-04-20T22:52:26.623Z,84968.16
2019-04-20T22:55:07.269Z,84947.75
2019-04-20T22:57:31.766Z,84973.02
2019-04-20T22:59:56.799Z,84966.21
2019-04-20T23:02:22.896Z,84958.44
2019-04-20T23:04:53.142Z,84944.83
2019-04-20T23:07:23.927Z,84974.95
2019-04-20T23:09:57.728Z,84966.21
2019-04-20T23:12:27.567Z,84989.53
2019-04-20T23:15:00.361Z,84984.67
2019-04-20T23:17:37.230Z,85004.11
2019-04-20T23:20:08.726Z,84989.53
2019-04-20T23:22:40.964Z,84994.39
2019-04-20T23:25:09.081Z,84995.37
2019-04-20T23:27:41.678Z,84979.81
2019-04-20T23:30:23.378Z,84989.53
2019-04-20T23:32:46.299Z,84986.63
2019-04-20T23:35:21.043Z,84958.44
2019-04-20T23:37:50.677Z,85003.14
2019-04-20T23:40:21.695Z,85006.05
2019-04-20T23:42:58.063Z,84974.95
2019-04-20T23:45:52.731Z,84971.07
2019-04-20T23:48:35.543Z,84953.58
2019-04-20T23:51:29.927Z,84881.66
2019-04-20T23:53:47.896Z,84966.21
2019-04-20T23:56:11.386Z,84977.87
2019-04-20T23:58:46.359Z,84991.48
